sensor_id;sensor_type;location;lat;lon;timestamp;P1;durP1;ratioP1;P2;durP2;ratioP2
7171;SDS011;3627;46.544;14.944;2022-12-07T00:02:20;6.95;;;5.28;;
7171;SDS011;3627;46.544;14.944;2022-12-07T00:04:49;6.70;;;4.80;;
7171;SDS011;3627;46.544;14.944;2022-12-07T00:07:15;4.82;;;4.07;;
7171;SDS011;3627;46.544;14.944;2022-12-07T00:09:42;6.85;;;4.50;;
7171;SDS011;3627;46.544;14.944;2022-12-07T00:12:08;4.93;;;4.35;;
7171;SDS011;3627;46.544;14.944;2022-12-07T00:14:35;4.60;;;4.00;;
7171;SDS011;3627;46.544;14.944;2022-12-07T00:17:01;4.30;;;3.90;;
7171;SDS011;3627;46.544;14.944;2022-12-07T00:19:27;7.75;;;3.80;;
7171;SDS011;3627;46.544;14.944;2022-12-07T00:21:55;4.00;;;3.60;;
7171;SDS011;3627;46.544;14.944;2022-12-07T00:24:22;4.03;;;3.53;;
7171;SDS011;3627;46.544;14.944;2022-12-07T00:26:48;4.32;;;3.85;;
7171;SDS011;3627;46.544;14.944;2022-12-07T00:29:15;4.78;;;4.05;;
7171;SDS011;3627;46.544;14.944;2022-12-07T00:31:42;4.70;;;4.10;;
7171;SDS011;3627;46.544;14.944;2022-12-07T00:34:11;7.95;;;4.78;;
7171;SDS011;3627;46.544;14.944;2022-12-07T00:36:38;5.82;;;4.63;;
7171;SDS011;3627;46.544;14.944;2022-12-07T00:39:06;4.90;;;4.40;;
7171;SDS011;3627;46.544;14.944;2022-12-07T00:41:32;6.30;;;4.63;;
7171;SDS011;3627;46.544;14.944;2022-12-07T00:43:58;5.50;;;3.80;;
7171;SDS011;3627;46.544;14.944;2022-12-07T00:46:25;9.52;;;4.97;;
7171;SDS011;3627;46.544;14.944;2022-12-07T00:48:51;8.05;;;4.90;;
7171;SDS011;3627;46.544;14.944;2022-12-07T00:51:19;8.35;;;4.90;;
7171;SDS011;3627;46.544;14.944;2022-12-07T00:53:46;7.43;;;5.30;;
7171;SDS011;3627;46.544;14.944;2022-12-07T00:56:14;8.55;;;6.35;;
7171;SDS011;3627;46.544;14.944;2022-12-07T00:58:41;5.10;;;4.60;;
7171;SDS011;3627;46.544;14.944;2022-12-07T01:01:08;6.90;;;5.13;;
7171;SDS011;3627;46.544;14.944;2022-12-07T01:03:35;13.13;;;6.38;;
7171;SDS011;3627;46.544;14.944;2022-12-07T01:06:02;5.65;;;4.80;;
7171;SDS011;3627;46.544;14.944;2022-12-07T01:08:28;7.65;;;4.78;;
7171;SDS011;3627;46.544;14.944;2022-12-07T01:10:58;6.97;;;4.63;;
7171;SDS011;3627;46.544;14.944;2022-12-07T01:13:27;12.30;;;7.17;;
7171;SDS011;3627;46.544;14.944;2022-12-07T01:15:55;5.07;;;4.50;;
7171;SDS011;3627;46.544;14.944;2022-12-07T01:18:22;5.57;;;4.43;;
7171;SDS011;3627;46.544;14.944;2022-12-07T01:20:56;5.83;;;4.20;;
7171;SDS011;3627;46.544;14.944;2022-12-07T01:23:22;4.93;;;4.13;;
7171;SDS011;3627;46.544;14.944;2022-12-07T01:25:53;4.45;;;4.00;;
7171;SDS011;3627;46.544;14.944;2022-12-07T01:28:19;5.10;;;4.40;;
7171;SDS011;3627;46.544;14.944;2022-12-07T01:30:55;6.40;;;5.05;;
7171;SDS011;3627;46.544;14.944;2022-12-07T01:33:21;4.28;;;3.97;;
7171;SDS011;3627;46.544;14.944;2022-12-07T01:35:48;4.55;;;3.65;;
7171;SDS011;3627;46.544;14.944;2022-12-07T01:38:14;6.43;;;4.00;;
7171;SDS011;3627;46.544;14.944;2022-12-07T01:40:40;5.83;;;4.30;;
7171;SDS011;3627;46.544;14.944;2022-12-07T01:43:09;5.07;;;4.13;;
7171;SDS011;3627;46.544;14.944;2022-12-07T01:45:39;4.60;;;3.83;;
7171;SDS011;3627;46.544;14.944;2022-12-07T01:48:08;4.57;;;4.18;;
7171;SDS011;3627;46.544;14.944;2022-12-07T01:50:36;4.40;;;4.00;;
7171;SDS011;3627;46.544;14.944;2022-12-07T01:53:03;5.33;;;4.57;;
7171;SDS011;3627;46.544;14.944;2022-12-07T01:55:31;6.57;;;5.25;;
7171;SDS011;3627;46.544;14.944;2022-12-07T01:57:57;6.67;;;3.93;;
7171;SDS011;3627;46.544;14.944;2022-12-07T02:00:24;5.90;;;4.00;;
7171;SDS011;3627;46.544;14.944;2022-12-07T02:02:51;3.75;;;3.45;;
7171;SDS011;3627;46.544;14.944;2022-12-07T02:05:20;4.85;;;4.18;;
7171;SDS011;3627;46.544;14.944;2022-12-07T02:07:48;3.83;;;3.47;;
7171;SDS011;3627;46.544;14.944;2022-12-07T02:10:15;7.03;;;4.57;;
7171;SDS011;3627;46.544;14.944;2022-12-07T02:12:42;7.70;;;4.43;;
7171;SDS011;3627;46.544;14.944;2022-12-07T02:15:09;5.25;;;4.28;;
7171;SDS011;3627;46.544;14.944;2022-12-07T02:17:37;4.43;;;3.60;;
7171;SDS011;3627;46.544;14.944;2022-12-07T02:20:14;4.43;;;3.67;;
7171;SDS011;3627;46.544;14.944;2022-12-07T02:25:51;4.93;;;4.43;;
7171;SDS011;3627;46.544;14.944;2022-12-07T02:28:22;4.55;;;3.78;;
7171;SDS011;3627;46.544;14.944;2022-12-07T02:30:55;4.38;;;3.97;;
7171;SDS011;3627;46.544;14.944;2022-12-07T02:33:24;4.45;;;3.75;;
7171;SDS011;3627;46.544;14.944;2022-12-07T02:35:53;4.18;;;3.78;;
7171;SDS011;3627;46.544;14.944;2022-12-07T02:38:23;4.00;;;3.63;;
7171;SDS011;3627;46.544;14.944;2022-12-07T02:40:51;4.85;;;3.83;;
7171;SDS011;3627;46.544;14.944;2022-12-07T02:43:19;4.30;;;3.80;;
7171;SDS011;3627;46.544;14.944;2022-12-07T02:45:49;4.70;;;3.83;;
7171;SDS011;3627;46.544;14.944;2022-12-07T02:48:19;5.25;;;4.15;;
7171;SDS011;3627;46.544;14.944;2022-12-07T02:50:47;4.45;;;3.72;;
7171;SDS011;3627;46.544;14.944;2022-12-07T02:53:30;4.97;;;3.63;;
7171;SDS011;3627;46.544;14.944;2022-12-07T02:55:57;5.10;;;4.38;;
7171;SDS011;3627;46.544;14.944;2022-12-07T02:58:27;5.65;;;4.00;;
7171;SDS011;3627;46.544;14.944;2022-12-07T03:00:58;4.63;;;3.75;;
7171;SDS011;3627;46.544;14.944;2022-12-07T03:03:29;6.10;;;4.60;;
7171;SDS011;3627;46.544;14.944;2022-12-07T03:06:00;6.43;;;4.47;;
7171;SDS011;3627;46.544;14.944;2022-12-07T03:08:31;4.20;;;3.80;;
7171;SDS011;3627;46.544;14.944;2022-12-07T03:11:00;4.70;;;3.90;;
7171;SDS011;3627;46.544;14.944;2022-12-07T03:13:29;5.17;;;3.60;;
7171;SDS011;3627;46.544;14.944;2022-12-07T03:15:58;5.20;;;3.42;;
7171;SDS011;3627;46.544;14.944;2022-12-07T03:18:28;4.17;;;3.73;;
7171;SDS011;3627;46.544;14.944;2022-12-07T03:20:57;5.18;;;4.40;;
7171;SDS011;3627;46.544;14.944;2022-12-07T03:23:24;4.55;;;4.10;;
7171;SDS011;3627;46.544;14.944;2022-12-07T03:25:53;4.40;;;4.00;;
7171;SDS011;3627;46.544;14.944;2022-12-07T03:28:22;6.72;;;5.05;;
7171;SDS011;3627;46.544;14.944;2022-12-07T03:30:51;6.10;;;3.97;;
7171;SDS011;3627;46.544;14.944;2022-12-07T03:33:21;6.32;;;4.57;;
7171;SDS011;3627;46.544;14.944;2022-12-07T03:35:49;4.93;;;4.23;;
7171;SDS011;3627;46.544;14.944;2022-12-07T03:38:19;4.65;;;3.90;;
7171;SDS011;3627;46.544;14.944;2022-12-07T03:40:48;6.37;;;4.30;;
7171;SDS011;3627;46.544;14.944;2022-12-07T03:43:15;5.05;;;4.05;;
7171;SDS011;3627;46.544;14.944;2022-12-07T03:45:43;5.35;;;4.80;;
7171;SDS011;3627;46.544;14.944;2022-12-07T03:48:14;4.57;;;4.03;;
7171;SDS011;3627;46.544;14.944;2022-12-07T03:50:43;5.03;;;4.53;;
7171;SDS011;3627;46.544;14.944;2022-12-07T03:53:12;3.95;;;3.65;;
7171;SDS011;3627;46.544;14.944;2022-12-07T03:55:43;5.28;;;4.28;;
7171;SDS011;3627;46.544;14.944;2022-12-07T03:58:11;6.50;;;4.30;;
7171;SDS011;3627;46.544;14.944;2022-12-07T04:00:38;4.47;;;3.80;;
7171;SDS011;3627;46.544;14.944;2022-12-07T04:03:04;5.73;;;4.77;;
7171;SDS011;3627;46.544;14.944;2022-12-07T04:05:31;4.30;;;3.60;;
7171;SDS011;3627;46.544;14.944;2022-12-07T04:07:57;4.93;;;3.90;;
7171;SDS011;3627;46.544;14.944;2022-12-07T04:10:24;5.60;;;3.73;;
7171;SDS011;3627;46.544;14.944;2022-12-07T04:12:51;4.70;;;3.70;;
7171;SDS011;3627;46.544;14.944;2022-12-07T04:15:18;7.55;;;4.03;;
7171;SDS011;3627;46.544;14.944;2022-12-07T04:17:44;5.30;;;4.03;;
7171;SDS011;3627;46.544;14.944;2022-12-07T04:20:11;6.68;;;4.57;;
7171;SDS011;3627;46.544;14.944;2022-12-07T04:22:37;6.03;;;4.18;;
7171;SDS011;3627;46.544;14.944;2022-12-07T04:25:04;6.15;;;4.93;;
7171;SDS011;3627;46.544;14.944;2022-12-07T04:27:31;4.60;;;3.25;;
7171;SDS011;3627;46.544;14.944;2022-12-07T04:29:59;7.30;;;3.65;;
7171;SDS011;3627;46.544;14.944;2022-12-07T04:32:25;4.40;;;3.92;;
7171;SDS011;3627;46.544;14.944;2022-12-07T04:34:51;5.63;;;4.82;;
7171;SDS011;3627;46.544;14.944;2022-12-07T04:37:18;4.25;;;3.83;;
7171;SDS011;3627;46.544;14.944;2022-12-07T04:39:44;5.85;;;4.43;;
7171;SDS011;3627;46.544;14.944;2022-12-07T04:42:11;4.40;;;3.97;;
7171;SDS011;3627;46.544;14.944;2022-12-07T04:44:38;6.43;;;4.32;;
7171;SDS011;3627;46.544;14.944;2022-12-07T04:47:06;6.47;;;4.07;;
7171;SDS011;3627;46.544;14.944;2022-12-07T04:49:32;11.30;;;7.30;;
7171;SDS011;3627;46.544;14.944;2022-12-07T04:51:59;6.70;;;4.83;;
7171;SDS011;3627;46.544;14.944;2022-12-07T04:54:26;9.30;;;5.80;;
7171;SDS011;3627;46.544;14.944;2022-12-07T04:56:52;7.50;;;4.50;;
7171;SDS011;3627;46.544;14.944;2022-12-07T04:59:18;6.40;;;5.53;;
7171;SDS011;3627;46.544;14.944;2022-12-07T05:01:45;5.93;;;4.60;;
7171;SDS011;3627;46.544;14.944;2022-12-07T05:04:12;7.63;;;5.60;;
7171;SDS011;3627;46.544;14.944;2022-12-07T05:06:41;5.97;;;4.40;;
7171;SDS011;3627;46.544;14.944;2022-12-07T05:09:07;7.20;;;4.73;;
7171;SDS011;3627;46.544;14.944;2022-12-07T05:11:33;8.00;;;5.37;;
7171;SDS011;3627;46.544;14.944;2022-12-07T05:14:06;9.13;;;5.37;;
7171;SDS011;3627;46.544;14.944;2022-12-07T05:16:33;11.05;;;6.57;;
7171;SDS011;3627;46.544;14.944;2022-12-07T05:19:00;10.80;;;5.77;;
7171;SDS011;3627;46.544;14.944;2022-12-07T05:21:27;11.87;;;5.10;;
7171;SDS011;3627;46.544;14.944;2022-12-07T05:23:54;7.90;;;5.10;;
7171;SDS011;3627;46.544;14.944;2022-12-07T05:26:20;6.90;;;4.83;;
7171;SDS011;3627;46.544;14.944;2022-12-07T05:28:49;6.95;;;5.20;;
7171;SDS011;3627;46.544;14.944;2022-12-07T05:31:16;5.25;;;4.38;;
7171;SDS011;3627;46.544;14.944;2022-12-07T05:33:42;8.73;;;5.50;;
7171;SDS011;3627;46.544;14.944;2022-12-07T05:36:09;6.83;;;4.50;;
7171;SDS011;3627;46.544;14.944;2022-12-07T05:38:36;6.13;;;4.37;;
7171;SDS011;3627;46.544;14.944;2022-12-07T05:41:03;4.27;;;3.87;;
7171;SDS011;3627;46.544;14.944;2022-12-07T05:43:30;6.23;;;4.13;;
7171;SDS011;3627;46.544;14.944;2022-12-07T05:45:56;5.07;;;4.53;;
7171;SDS011;3627;46.544;14.944;2022-12-07T05:48:23;5.73;;;4.30;;
7171;SDS011;3627;46.544;14.944;2022-12-07T05:50:49;5.43;;;4.37;;
7171;SDS011;3627;46.544;14.944;2022-12-07T05:53:16;5.75;;;4.47;;
7171;SDS011;3627;46.544;14.944;2022-12-07T05:55:44;4.43;;;3.90;;
7171;SDS011;3627;46.544;14.944;2022-12-07T05:58:10;4.63;;;4.23;;
7171;SDS011;3627;46.544;14.944;2022-12-07T06:00:54;6.75;;;4.22;;
7171;SDS011;3627;46.544;14.944;2022-12-07T06:03:21;4.82;;;4.40;;
7171;SDS011;3627;46.544;14.944;2022-12-07T06:05:47;4.83;;;3.90;;
7171;SDS011;3627;46.544;14.944;2022-12-07T06:08:14;4.20;;;3.80;;
7171;SDS011;3627;46.544;14.944;2022-12-07T06:10:40;4.23;;;3.83;;
7171;SDS011;3627;46.544;14.944;2022-12-07T06:13:09;4.43;;;4.03;;
7171;SDS011;3627;46.544;14.944;2022-12-07T06:15:35;4.57;;;4.03;;
7171;SDS011;3627;46.544;14.944;2022-12-07T06:18:01;5.63;;;4.60;;
7171;SDS011;3627;46.544;14.944;2022-12-07T06:20:28;5.90;;;4.47;;
7171;SDS011;3627;46.544;14.944;2022-12-07T06:22:54;5.90;;;4.63;;
7171;SDS011;3627;46.544;14.944;2022-12-07T06:25:20;6.22;;;4.78;;
7171;SDS011;3627;46.544;14.944;2022-12-07T06:27:47;6.28;;;4.95;;
7171;SDS011;3627;46.544;14.944;2022-12-07T06:30:15;6.70;;;4.67;;
7171;SDS011;3627;46.544;14.944;2022-12-07T06:32:41;7.20;;;5.30;;
7171;SDS011;3627;46.544;14.944;2022-12-07T06:35:07;8.67;;;5.70;;
7171;SDS011;3627;46.544;14.944;2022-12-07T06:37:34;5.30;;;4.80;;
7171;SDS011;3627;46.544;14.944;2022-12-07T06:40:00;8.60;;;5.27;;
7171;SDS011;3627;46.544;14.944;2022-12-07T06:42:27;11.80;;;7.07;;
7171;SDS011;3627;46.544;14.944;2022-12-07T06:44:54;12.33;;;7.63;;
7171;SDS011;3627;46.544;14.944;2022-12-07T06:47:21;11.30;;;6.17;;
7171;SDS011;3627;46.544;14.944;2022-12-07T06:49:48;7.43;;;5.57;;
7171;SDS011;3627;46.544;14.944;2022-12-07T06:52:14;5.53;;;4.45;;
7171;SDS011;3627;46.544;14.944;2022-12-07T06:54:40;8.88;;;5.13;;
7171;SDS011;3627;46.544;14.944;2022-12-07T06:57:07;6.23;;;5.13;;
7171;SDS011;3627;46.544;14.944;2022-12-07T06:59:33;7.63;;;5.35;;
7171;SDS011;3627;46.544;14.944;2022-12-07T07:02:00;4.70;;;4.20;;
7171;SDS011;3627;46.544;14.944;2022-12-07T07:04:27;5.53;;;4.50;;
7171;SDS011;3627;46.544;14.944;2022-12-07T07:06:54;8.73;;;5.00;;
7171;SDS011;3627;46.544;14.944;2022-12-07T07:09:20;6.10;;;4.80;;
7171;SDS011;3627;46.544;14.944;2022-12-07T07:11:46;7.17;;;5.33;;
7171;SDS011;3627;46.544;14.944;2022-12-07T07:14:13;7.40;;;5.00;;
7171;SDS011;3627;46.544;14.944;2022-12-07T07:16:43;7.00;;;5.10;;
7171;SDS011;3627;46.544;14.944;2022-12-07T07:19:10;5.90;;;4.72;;
7171;SDS011;3627;46.544;14.944;2022-12-07T07:21:38;5.00;;;4.17;;
7171;SDS011;3627;46.544;14.944;2022-12-07T07:24:04;6.78;;;5.35;;
7171;SDS011;3627;46.544;14.944;2022-12-07T07:26:31;7.90;;;4.97;;
7171;SDS011;3627;46.544;14.944;2022-12-07T07:28:57;5.47;;;4.47;;
7171;SDS011;3627;46.544;14.944;2022-12-07T07:31:24;7.10;;;4.93;;
7171;SDS011;3627;46.544;14.944;2022-12-07T07:33:50;5.55;;;4.18;;
7171;SDS011;3627;46.544;14.944;2022-12-07T07:36:16;6.53;;;4.80;;
7171;SDS011;3627;46.544;14.944;2022-12-07T07:38:44;8.00;;;4.95;;
7171;SDS011;3627;46.544;14.944;2022-12-07T07:41:11;7.30;;;5.57;;
7171;SDS011;3627;46.544;14.944;2022-12-07T07:43:37;6.25;;;4.90;;
7171;SDS011;3627;46.544;14.944;2022-12-07T07:46:03;7.35;;;4.80;;
7171;SDS011;3627;46.544;14.944;2022-12-07T07:48:30;9.40;;;5.57;;
7171;SDS011;3627;46.544;14.944;2022-12-07T07:50:56;7.32;;;4.32;;
7171;SDS011;3627;46.544;14.944;2022-12-07T07:53:23;6.38;;;4.88;;
7171;SDS011;3627;46.544;14.944;2022-12-07T07:55:51;5.65;;;4.13;;
7171;SDS011;3627;46.544;14.944;2022-12-07T07:58:19;6.78;;;4.90;;
7171;SDS011;3627;46.544;14.944;2022-12-07T08:00:46;7.07;;;5.07;;
7171;SDS011;3627;46.544;14.944;2022-12-07T08:03:12;6.35;;;4.88;;
7171;SDS011;3627;46.544;14.944;2022-12-07T08:05:38;6.83;;;4.53;;
7171;SDS011;3627;46.544;14.944;2022-12-07T08:08:05;6.03;;;4.75;;
7171;SDS011;3627;46.544;14.944;2022-12-07T08:10:31;7.07;;;4.73;;
7171;SDS011;3627;46.544;14.944;2022-12-07T08:13:01;7.17;;;4.60;;
7171;SDS011;3627;46.544;14.944;2022-12-07T08:15:40;5.80;;;4.50;;
7171;SDS011;3627;46.544;14.944;2022-12-07T08:18:07;6.50;;;4.73;;
7171;SDS011;3627;46.544;14.944;2022-12-07T08:20:34;4.55;;;4.15;;
7171;SDS011;3627;46.544;14.944;2022-12-07T08:23:00;8.77;;;4.73;;
7171;SDS011;3627;46.544;14.944;2022-12-07T08:25:27;9.07;;;5.13;;
7171;SDS011;3627;46.544;14.944;2022-12-07T08:27:53;4.75;;;4.35;;
7171;SDS011;3627;46.544;14.944;2022-12-07T08:30:21;5.55;;;4.45;;
7171;SDS011;3627;46.544;14.944;2022-12-07T08:32:48;7.05;;;4.90;;
7171;SDS011;3627;46.544;14.944;2022-12-07T08:35:14;7.40;;;5.53;;
7171;SDS011;3627;46.544;14.944;2022-12-07T08:37:41;6.82;;;4.18;;
7171;SDS011;3627;46.544;14.944;2022-12-07T08:40:08;8.38;;;4.60;;
7171;SDS011;3627;46.544;14.944;2022-12-07T08:42:35;5.93;;;4.85;;
7171;SDS011;3627;46.544;14.944;2022-12-07T08:45:05;7.00;;;4.57;;
7171;SDS011;3627;46.544;14.944;2022-12-07T08:47:33;9.93;;;5.25;;
7171;SDS011;3627;46.544;14.944;2022-12-07T08:50:00;6.25;;;4.57;;
7171;SDS011;3627;46.544;14.944;2022-12-07T08:52:28;5.82;;;4.78;;
7171;SDS011;3627;46.544;14.944;2022-12-07T08:54:55;7.22;;;4.45;;
7171;SDS011;3627;46.544;14.944;2022-12-07T08:57:22;8.20;;;4.75;;
7171;SDS011;3627;46.544;14.944;2022-12-07T08:59:48;7.10;;;4.75;;
7171;SDS011;3627;46.544;14.944;2022-12-07T09:02:15;6.97;;;4.43;;
7171;SDS011;3627;46.544;14.944;2022-12-07T09:04:42;5.43;;;4.22;;
7171;SDS011;3627;46.544;14.944;2022-12-07T09:07:09;4.78;;;4.25;;
7171;SDS011;3627;46.544;14.944;2022-12-07T09:09:35;5.75;;;4.30;;
7171;SDS011;3627;46.544;14.944;2022-12-07T09:12:02;5.93;;;4.47;;
7171;SDS011;3627;46.544;14.944;2022-12-07T09:14:28;4.40;;;4.00;;
7171;SDS011;3627;46.544;14.944;2022-12-07T09:16:55;5.07;;;4.40;;
7171;SDS011;3627;46.544;14.944;2022-12-07T09:19:21;4.75;;;4.30;;
7171;SDS011;3627;46.544;14.944;2022-12-07T09:21:49;5.47;;;4.25;;
7171;SDS011;3627;46.544;14.944;2022-12-07T09:24:15;4.05;;;3.65;;
7171;SDS011;3627;46.544;14.944;2022-12-07T09:26:41;5.47;;;4.03;;
7171;SDS011;3627;46.544;14.944;2022-12-07T09:29:09;5.18;;;4.30;;
7171;SDS011;3627;46.544;14.944;2022-12-07T09:31:36;4.22;;;3.83;;
7171;SDS011;3627;46.544;14.944;2022-12-07T09:34:02;5.68;;;4.18;;
7171;SDS011;3627;46.544;14.944;2022-12-07T09:36:30;4.25;;;3.85;;
7171;SDS011;3627;46.544;14.944;2022-12-07T09:38:58;5.18;;;4.18;;
7171;SDS011;3627;46.544;14.944;2022-12-07T09:41:25;5.40;;;3.75;;
7171;SDS011;3627;46.544;14.944;2022-12-07T09:43:52;4.18;;;3.55;;
7171;SDS011;3627;46.544;14.944;2022-12-07T09:46:19;4.53;;;3.88;;
7171;SDS011;3627;46.544;14.944;2022-12-07T09:48:47;4.07;;;3.42;;
7171;SDS011;3627;46.544;14.944;2022-12-07T09:51:15;5.45;;;3.90;;
7171;SDS011;3627;46.544;14.944;2022-12-07T09:53:42;3.97;;;3.55;;
7171;SDS011;3627;46.544;14.944;2022-12-07T09:56:11;3.30;;;3.00;;
7171;SDS011;3627;46.544;14.944;2022-12-07T09:58:39;4.25;;;3.60;;
7171;SDS011;3627;46.544;14.944;2022-12-07T10:01:09;4.13;;;3.70;;
7171;SDS011;3627;46.544;14.944;2022-12-07T10:03:37;4.07;;;3.58;;
7171;SDS011;3627;46.544;14.944;2022-12-07T10:06:04;4.30;;;3.88;;
7171;SDS011;3627;46.544;14.944;2022-12-07T10:08:31;4.97;;;3.38;;
7171;SDS011;3627;46.544;14.944;2022-12-07T10:10:57;4.95;;;3.85;;
7171;SDS011;3627;46.544;14.944;2022-12-07T10:13:36;3.65;;;3.35;;
7171;SDS011;3627;46.544;14.944;2022-12-07T10:16:03;5.95;;;3.88;;
7171;SDS011;3627;46.544;14.944;2022-12-07T10:18:30;6.28;;;4.35;;
7171;SDS011;3627;46.544;14.944;2022-12-07T10:21:00;4.68;;;4.07;;
7171;SDS011;3627;46.544;14.944;2022-12-07T10:23:27;4.45;;;3.65;;
7171;SDS011;3627;46.544;14.944;2022-12-07T10:25:53;4.13;;;3.72;;
7171;SDS011;3627;46.544;14.944;2022-12-07T10:28:20;6.72;;;4.55;;
7171;SDS011;3627;46.544;14.944;2022-12-07T10:30:50;5.30;;;4.10;;
7171;SDS011;3627;46.544;14.944;2022-12-07T10:33:35;6.35;;;4.30;;
7171;SDS011;3627;46.544;14.944;2022-12-07T10:36:15;4.18;;;3.83;;
7171;SDS011;3627;46.544;14.944;2022-12-07T10:38:43;4.82;;;3.50;;
7171;SDS011;3627;46.544;14.944;2022-12-07T10:41:10;4.10;;;3.78;;
7171;SDS011;3627;46.544;14.944;2022-12-07T10:43:36;3.72;;;3.42;;
7171;SDS011;3627;46.544;14.944;2022-12-07T10:48:47;3.80;;;3.50;;
7171;SDS011;3627;46.544;14.944;2022-12-07T10:51:17;6.90;;;3.78;;
7171;SDS011;3627;46.544;14.944;2022-12-07T10:53:52;4.93;;;3.35;;
7171;SDS011;3627;46.544;14.944;2022-12-07T10:56:29;4.88;;;4.03;;
7171;SDS011;3627;46.544;14.944;2022-12-07T10:59:03;6.15;;;3.50;;
7171;SDS011;3627;46.544;14.944;2022-12-07T11:01:37;4.90;;;3.42;;
7171;SDS011;3627;46.544;14.944;2022-12-07T11:04:13;3.80;;;3.45;;
7171;SDS011;3627;46.544;14.944;2022-12-07T11:06:44;3.38;;;3.03;;
7171;SDS011;3627;46.544;14.944;2022-12-07T11:09:20;4.82;;;3.75;;
7171;SDS011;3627;46.544;14.944;2022-12-07T11:11:51;3.70;;;3.28;;
7171;SDS011;3627;46.544;14.944;2022-12-07T11:14:21;3.38;;;3.00;;
7171;SDS011;3627;46.544;14.944;2022-12-07T11:16:52;4.55;;;3.55;;
7171;SDS011;3627;46.544;14.944;2022-12-07T11:22:06;3.92;;;3.40;;
7171;SDS011;3627;46.544;14.944;2022-12-07T11:24:37;3.78;;;3.08;;
7171;SDS011;3627;46.544;14.944;2022-12-07T11:27:10;8.00;;;3.65;;
7171;SDS011;3627;46.544;14.944;2022-12-07T11:29:44;6.25;;;5.25;;
7171;SDS011;3627;46.544;14.944;2022-12-07T11:32:14;7.68;;;3.92;;
7171;SDS011;3627;46.544;14.944;2022-12-07T11:34:46;7.15;;;4.20;;
7171;SDS011;3627;46.544;14.944;2022-12-07T11:37:19;4.88;;;4.13;;
7171;SDS011;3627;46.544;14.944;2022-12-07T11:39:49;4.05;;;3.30;;
7171;SDS011;3627;46.544;14.944;2022-12-07T11:42:19;4.30;;;3.47;;
7171;SDS011;3627;46.544;14.944;2022-12-07T11:44:48;7.35;;;3.80;;
7171;SDS011;3627;46.544;14.944;2022-12-07T11:47:17;8.65;;;4.10;;
7171;SDS011;3627;46.544;14.944;2022-12-07T11:49:47;4.57;;;3.88;;
7171;SDS011;3627;46.544;14.944;2022-12-07T11:52:22;4.72;;;3.60;;
7171;SDS011;3627;46.544;14.944;2022-12-07T11:54:51;3.78;;;3.40;;
7171;SDS011;3627;46.544;14.944;2022-12-07T11:57:20;4.22;;;3.83;;
7171;SDS011;3627;46.544;14.944;2022-12-07T11:59:49;3.78;;;3.38;;
7171;SDS011;3627;46.544;14.944;2022-12-07T12:02:18;6.68;;;3.70;;
7171;SDS011;3627;46.544;14.944;2022-12-07T12:04:50;4.70;;;3.63;;
7171;SDS011;3627;46.544;14.944;2022-12-07T12:07:18;5.25;;;4.18;;
7171;SDS011;3627;46.544;14.944;2022-12-07T12:09:48;4.65;;;3.60;;
7171;SDS011;3627;46.544;14.944;2022-12-07T12:12:35;4.55;;;3.92;;
7171;SDS011;3627;46.544;14.944;2022-12-07T12:15:09;8.90;;;4.25;;
7171;SDS011;3627;46.544;14.944;2022-12-07T12:20:23;5.68;;;4.22;;
7171;SDS011;3627;46.544;14.944;2022-12-07T12:22:51;5.65;;;3.85;;
7171;SDS011;3627;46.544;14.944;2022-12-07T12:25:21;4.15;;;3.83;;
7171;SDS011;3627;46.544;14.944;2022-12-07T12:27:48;3.45;;;3.15;;
7171;SDS011;3627;46.544;14.944;2022-12-07T12:33:01;3.65;;;3.35;;
7171;SDS011;3627;46.544;14.944;2022-12-07T12:35:29;3.20;;;2.97;;
7171;SDS011;3627;46.544;14.944;2022-12-07T12:38:20;5.32;;;3.33;;
7171;SDS011;3627;46.544;14.944;2022-12-07T12:40:48;6.90;;;3.25;;
7171;SDS011;3627;46.544;14.944;2022-12-07T12:48:36;7.28;;;3.72;;
7171;SDS011;3627;46.544;14.944;2022-12-07T12:53:53;5.75;;;3.25;;
7171;SDS011;3627;46.544;14.944;2022-12-07T12:56:35;6.85;;;3.97;;
7171;SDS011;3627;46.544;14.944;2022-12-07T12:59:22;3.40;;;2.92;;
7171;SDS011;3627;46.544;14.944;2022-12-07T13:01:49;5.40;;;3.17;;
7171;SDS011;3627;46.544;14.944;2022-12-07T13:04:27;6.40;;;3.95;;
7171;SDS011;3627;46.544;14.944;2022-12-07T13:06:54;5.40;;;3.55;;
7171;SDS011;3627;46.544;14.944;2022-12-07T13:09:21;4.47;;;3.63;;
7171;SDS011;3627;46.544;14.944;2022-12-07T13:11:54;4.43;;;3.83;;
7171;SDS011;3627;46.544;14.944;2022-12-07T13:17:08;5.05;;;3.58;;
7171;SDS011;3627;46.544;14.944;2022-12-07T13:25:09;3.75;;;3.42;;
7171;SDS011;3627;46.544;14.944;2022-12-07T13:27:39;5.65;;;4.18;;
7171;SDS011;3627;46.544;14.944;2022-12-07T13:30:09;4.85;;;4.07;;
7171;SDS011;3627;46.544;14.944;2022-12-07T13:32:39;6.80;;;4.40;;
7171;SDS011;3627;46.544;14.944;2022-12-07T13:37:47;5.45;;;3.70;;
7171;SDS011;3627;46.544;14.944;2022-12-07T13:40:16;5.72;;;4.13;;
7171;SDS011;3627;46.544;14.944;2022-12-07T13:42:45;5.75;;;3.72;;
7171;SDS011;3627;46.544;14.944;2022-12-07T13:45:20;5.65;;;3.72;;
7171;SDS011;3627;46.544;14.944;2022-12-07T13:47:47;8.57;;;4.90;;
7171;SDS011;3627;46.544;14.944;2022-12-07T13:50:21;6.45;;;4.28;;
7171;SDS011;3627;46.544;14.944;2022-12-07T13:52:48;4.80;;;3.75;;
7171;SDS011;3627;46.544;14.944;2022-12-07T13:55:15;5.60;;;4.55;;
7171;SDS011;3627;46.544;14.944;2022-12-07T13:57:43;4.93;;;3.55;;
7171;SDS011;3627;46.544;14.944;2022-12-07T14:00:15;7.95;;;4.55;;
7171;SDS011;3627;46.544;14.944;2022-12-07T14:02:53;8.27;;;4.25;;
7171;SDS011;3627;46.544;14.944;2022-12-07T14:05:23;5.32;;;3.40;;
7171;SDS011;3627;46.544;14.944;2022-12-07T14:07:52;8.55;;;3.90;;
7171;SDS011;3627;46.544;14.944;2022-12-07T14:10:23;6.00;;;4.35;;
7171;SDS011;3627;46.544;14.944;2022-12-07T14:12:49;8.02;;;4.43;;
7171;SDS011;3627;46.544;14.944;2022-12-07T14:15:19;6.05;;;3.92;;
7171;SDS011;3627;46.544;14.944;2022-12-07T14:17:49;6.10;;;4.40;;
7171;SDS011;3627;46.544;14.944;2022-12-07T14:20:29;8.25;;;4.32;;
7171;SDS011;3627;46.544;14.944;2022-12-07T14:22:55;7.40;;;4.63;;
7171;SDS011;3627;46.544;14.944;2022-12-07T14:25:22;9.32;;;4.72;;
7171;SDS011;3627;46.544;14.944;2022-12-07T14:27:50;10.27;;;5.65;;
7171;SDS011;3627;46.544;14.944;2022-12-07T14:30:19;10.88;;;5.70;;
7171;SDS011;3627;46.544;14.944;2022-12-07T14:32:46;17.67;;;8.07;;
7171;SDS011;3627;46.544;14.944;2022-12-07T14:35:16;12.75;;;7.18;;
7171;SDS011;3627;46.544;14.944;2022-12-07T14:37:43;11.82;;;7.47;;
7171;SDS011;3627;46.544;14.944;2022-12-07T14:40:12;9.15;;;7.38;;
7171;SDS011;3627;46.544;14.944;2022-12-07T14:42:38;9.98;;;6.47;;
7171;SDS011;3627;46.544;14.944;2022-12-07T14:45:05;6.73;;;6.03;;
7171;SDS011;3627;46.544;14.944;2022-12-07T14:47:35;5.63;;;4.90;;
7171;SDS011;3627;46.544;14.944;2022-12-07T14:50:01;5.65;;;3.83;;
7171;SDS011;3627;46.544;14.944;2022-12-07T14:52:28;6.38;;;3.85;;
7171;SDS011;3627;46.544;14.944;2022-12-07T14:54:55;8.33;;;4.80;;
7171;SDS011;3627;46.544;14.944;2022-12-07T14:57:21;7.33;;;4.90;;
7171;SDS011;3627;46.544;14.944;2022-12-07T14:59:48;4.97;;;4.47;;
7171;SDS011;3627;46.544;14.944;2022-12-07T15:02:15;6.17;;;4.97;;
7171;SDS011;3627;46.544;14.944;2022-12-07T15:04:43;5.43;;;4.22;;
7171;SDS011;3627;46.544;14.944;2022-12-07T15:07:10;5.77;;;4.10;;
7171;SDS011;3627;46.544;14.944;2022-12-07T15:09:39;5.27;;;4.00;;
7171;SDS011;3627;46.544;14.944;2022-12-07T15:12:05;4.60;;;4.17;;
7171;SDS011;3627;46.544;14.944;2022-12-07T15:14:31;5.90;;;4.60;;
7171;SDS011;3627;46.544;14.944;2022-12-07T15:16:58;5.63;;;4.17;;
7171;SDS011;3627;46.544;14.944;2022-12-07T15:19:25;11.25;;;6.90;;
7171;SDS011;3627;46.544;14.944;2022-12-07T15:21:53;9.47;;;5.40;;
7171;SDS011;3627;46.544;14.944;2022-12-07T15:24:20;5.30;;;4.78;;
7171;SDS011;3627;46.544;14.944;2022-12-07T15:26:47;9.57;;;5.67;;
7171;SDS011;3627;46.544;14.944;2022-12-07T15:29:13;15.93;;;8.03;;
7171;SDS011;3627;46.544;14.944;2022-12-07T15:31:41;21.20;;;9.60;;
7171;SDS011;3627;46.544;14.944;2022-12-07T15:34:07;16.17;;;8.47;;
7171;SDS011;3627;46.544;14.944;2022-12-07T15:36:34;12.27;;;6.50;;
7171;SDS011;3627;46.544;14.944;2022-12-07T15:39:02;6.53;;;5.00;;
7171;SDS011;3627;46.544;14.944;2022-12-07T15:41:29;7.13;;;5.37;;